Baker Lake Airport
CYBK : rendu visible

Aérodrome :











RETROUVEZ-NOUS SUR...

 
LOGIN :

S'inscrire | Disclaimer

   EN    FR    IT 

 









Légende :    VFR   VFR Marginal   IFR   IFR Intensif   IFR Très Intensif
Visi : 
Plafond : 
>= 8 km
>= 3000ft
5 à 8 km
1000 à 3000 ft
1500m à 5 km
500 à 1000 ft
800 à 1500m
200 à 500 ft
< 800m
< 200 ft
Symboles :   Orages  Brouillard  Fortes neiges  Fortes précipitations  Vent > 20 kt






- Altitude de l'aérodrome : 59 ft
- Code IATA : YBK


CYBK - Baker Lake

DERNIER METAR :
  • 071400Z 01005KT 25SM SKC M21/M24 A3015 RMK SLP213

METARs EXPIRÉS :
  • 071300Z 01006KT 20SM SKC M22/M25 A3015 RMK SLP215
  • 071200Z 35007KT 20SM SKC M23/M26 A3016 RMK SLP218

TAF TAF CYBK
Valide du 07 à 12h jusqu'au 08 à 00h UTC


071205Z 0712/0724 36005KT P6SM SKC
BECMG 0712/0714 10010KT RMK NXT FCST BY 071800Z



MET'MAP, la Météo Aéronautique d'un coup d'oeil ! - Copyright ORBIFLY Décembre 2007 - Disclaimer

ORBIFLY MET'MAP TEAM :

Programmation & Développement : Alexandra Zaïnal
Sur une idée originale de : Baudouin d'Aumeries
Assistance à la programmation : Marc-Olivier Méhu
Soutien technique & logistique : Manuel Goepfert

Contact : metmap@orbifly.com




SOURCES & CREDITS :

   NOAA       Earth
Advisory